sensor_id;sensor_type;location;lat;lon;timestamp;pressure;altitude;pressure_sealevel;temperature;humidity
78509;BME280;67802;50.846;7.958;2023-02-28T19:35:52;98910.38;;;18.09;24.16
78509;BME280;67802;50.846;7.958;2023-02-28T19:41:23;98916.81;;;18.19;24.20
78509;BME280;67802;50.846;7.958;2023-02-28T19:43:48;98913.19;;;18.22;24.25
78509;BME280;67802;50.846;7.958;2023-02-28T19:46:15;98912.53;;;18.02;24.79
78509;BME280;67802;50.846;7.958;2023-02-28T19:48:40;98911.16;;;17.95;24.83
78509;BME280;67802;50.846;7.958;2023-02-28T19:51:11;98910.97;;;17.98;24.74
78509;BME280;67802;50.846;7.958;2023-02-28T19:53:38;98903.72;;;18.03;24.72
78509;BME280;67802;50.846;7.958;2023-02-28T19:56:04;98907.75;;;18.09;24.79
78509;BME280;67802;50.846;7.958;2023-02-28T19:58:29;98912.78;;;18.14;24.53
78509;BME280;67802;50.846;7.958;2023-02-28T20:00:55;98907.16;;;18.20;24.38
78509;BME280;67802;50.846;7.958;2023-02-28T20:03:21;98906.88;;;18.24;24.37
78509;BME280;67802;50.846;7.958;2023-02-28T20:05:46;98911.13;;;18.27;24.42
78509;BME280;67802;50.846;7.958;2023-02-28T20:08:12;98902.28;;;18.28;24.33
78509;BME280;67802;50.846;7.958;2023-02-28T20:10:38;98908.22;;;18.32;24.28
78509;BME280;67802;50.846;7.958;2023-02-28T20:13:03;98910.69;;;18.35;24.42
78509;BME280;67802;50.846;7.958;2023-02-28T20:15:29;98904.50;;;18.36;24.35
78509;BME280;67802;50.846;7.958;2023-02-28T20:17:56;98904.50;;;18.36;24.27
78509;BME280;67802;50.846;7.958;2023-02-28T20:20:24;98911.22;;;18.26;24.72
78509;BME280;67802;50.846;7.958;2023-02-28T20:22:49;98905.88;;;18.11;25.07
78509;BME280;67802;50.846;7.958;2023-02-28T20:25:14;98897.59;;;18.03;25.17
78509;BME280;67802;50.846;7.958;2023-02-28T20:27:41;98887.75;;;18.06;25.14
78509;BME280;67802;50.846;7.958;2023-02-28T20:30:07;98893.84;;;18.07;24.97
78509;BME280;67802;50.846;7.958;2023-02-28T20:32:34;98894.88;;;18.04;25.11
78509;BME280;67802;50.846;7.958;2023-02-28T20:34:59;98887.66;;;18.08;25.04
78509;BME280;67802;50.846;7.958;2023-02-28T20:37:24;98893.50;;;18.13;24.94
78509;BME280;67802;50.846;7.958;2023-02-28T20:39:50;98900.28;;;18.17;24.99
78509;BME280;67802;50.846;7.958;2023-02-28T20:42:17;98896.53;;;18.21;24.98
78509;BME280;67802;50.846;7.958;2023-02-28T20:44:42;98895.53;;;18.24;24.88
78509;BME280;67802;50.846;7.958;2023-02-28T20:47:08;98894.50;;;18.27;24.94
78509;BME280;67802;50.846;7.958;2023-02-28T20:49:33;98895.44;;;18.26;24.59
78509;BME280;67802;50.846;7.958;2023-02-28T20:51:58;98899.00;;;18.24;24.76
78509;BME280;67802;50.846;7.958;2023-02-28T20:54:24;98896.19;;;18.28;24.86
78509;BME280;67802;50.846;7.958;2023-02-28T20:56:49;98898.72;;;18.29;24.94
78509;BME280;67802;50.846;7.958;2023-02-28T20:59:14;98902.03;;;18.33;24.72
78509;BME280;67802;50.846;7.958;2023-02-28T21:01:39;98905.00;;;18.27;24.64
78509;BME280;67802;50.846;7.958;2023-02-28T21:04:07;98915.66;;;18.25;24.91
78509;BME280;67802;50.846;7.958;2023-02-28T21:06:35;98900.53;;;18.29;24.86
78509;BME280;67802;50.846;7.958;2023-02-28T21:09:04;98902.03;;;18.33;24.98
78509;BME280;67802;50.846;7.958;2023-02-28T21:11:32;98902.63;;;18.38;24.97
78509;BME280;67802;50.846;7.958;2023-02-28T21:13:59;98897.06;;;18.43;24.84
78509;BME280;67802;50.846;7.958;2023-02-28T21:16:26;98894.28;;;18.46;24.82
78509;BME280;67802;50.846;7.958;2023-02-28T21:18:53;98899.28;;;18.50;24.80
78509;BME280;67802;50.846;7.958;2023-02-28T21:21:23;98911.38;;;18.53;24.73
78509;BME280;67802;50.846;7.958;2023-02-28T21:23:49;98912.03;;;18.57;24.70
78509;BME280;67802;50.846;7.958;2023-02-28T21:26:18;98908.41;;;18.59;24.52
78509;BME280;67802;50.846;7.958;2023-02-28T21:28:57;98915.25;;;18.62;24.75
78509;BME280;67802;50.846;7.958;2023-02-28T21:31:26;98915.94;;;18.65;24.59
78509;BME280;67802;50.846;7.958;2023-02-28T21:33:53;98905.22;;;18.68;24.65
78509;BME280;67802;50.846;7.958;2023-02-28T21:36:21;98904.06;;;18.58;24.67
78509;BME280;67802;50.846;7.958;2023-02-28T21:38:48;98905.66;;;18.46;24.60
78509;BME280;67802;50.846;7.958;2023-02-28T21:41:19;98913.63;;;18.45;24.89
78509;BME280;67802;50.846;7.958;2023-02-28T21:43:46;98916.19;;;18.46;24.86
78509;BME280;67802;50.846;7.958;2023-02-28T21:46:14;98925.75;;;18.47;24.83
78509;BME280;67802;50.846;7.958;2023-02-28T21:48:40;98918.81;;;18.46;24.87
78509;BME280;67802;50.846;7.958;2023-02-28T21:51:11;98921.09;;;18.52;24.84
78509;BME280;67802;50.846;7.958;2023-02-28T21:53:38;98930.28;;;18.60;24.75
78509;BME280;67802;50.846;7.958;2023-02-28T21:56:06;98923.72;;;18.67;24.85
78509;BME280;67802;50.846;7.958;2023-02-28T21:58:31;98921.66;;;18.72;24.72
78509;BME280;67802;50.846;7.958;2023-02-28T22:01:05;98929.31;;;18.77;24.69
78509;BME280;67802;50.846;7.958;2023-02-28T22:03:30;98925.56;;;18.81;24.44
78509;BME280;67802;50.846;7.958;2023-02-28T22:05:55;98927.03;;;18.85;24.57
78509;BME280;67802;50.846;7.958;2023-02-28T22:08:21;98934.69;;;18.90;24.55
78509;BME280;67802;50.846;7.958;2023-02-28T22:10:46;98929.25;;;18.93;24.44
78509;BME280;67802;50.846;7.958;2023-02-28T22:13:11;98929.09;;;18.96;24.45
78509;BME280;67802;50.846;7.958;2023-02-28T22:15:37;98922.78;;;18.98;24.53
78509;BME280;67802;50.846;7.958;2023-02-28T22:18:02;98908.59;;;19.01;24.50
78509;BME280;67802;50.846;7.958;2023-02-28T22:20:28;98915.44;;;19.04;24.34
78509;BME280;67802;50.846;7.958;2023-02-28T22:22:54;98906.53;;;19.06;24.17
78509;BME280;67802;50.846;7.958;2023-02-28T22:25:19;98921.16;;;19.10;24.27
78509;BME280;67802;50.846;7.958;2023-02-28T22:27:45;98917.59;;;19.11;24.37
78509;BME280;67802;50.846;7.958;2023-02-28T22:30:10;98909.63;;;19.13;24.10
78509;BME280;67802;50.846;7.958;2023-02-28T22:32:36;98907.75;;;19.15;24.29
78509;BME280;67802;50.846;7.958;2023-02-28T22:35:01;98908.75;;;19.12;24.22
78509;BME280;67802;50.846;7.958;2023-02-28T22:37:26;98916.66;;;19.12;24.42
78509;BME280;67802;50.846;7.958;2023-02-28T22:39:52;98908.75;;;19.12;24.40
78509;BME280;67802;50.846;7.958;2023-02-28T22:42:17;98914.88;;;19.13;24.31
78509;BME280;67802;50.846;7.958;2023-02-28T22:44:42;98915.72;;;19.13;24.31
78509;BME280;67802;50.846;7.958;2023-02-28T22:47:11;98911.31;;;19.14;24.32
78509;BME280;67802;50.846;7.958;2023-02-28T22:49:36;98903.31;;;19.16;24.31
78509;BME280;67802;50.846;7.958;2023-02-28T22:52:01;98904.16;;;19.16;24.14
78509;BME280;67802;50.846;7.958;2023-02-28T22:54:27;98902.38;;;19.17;24.11
78509;BME280;67802;50.846;7.958;2023-02-28T22:56:52;98902.28;;;19.18;24.10
78509;BME280;67802;50.846;7.958;2023-02-28T22:59:17;98904.06;;;19.18;23.99
78509;BME280;67802;50.846;7.958;2023-02-28T23:01:43;98904.81;;;19.20;24.06
78509;BME280;67802;50.846;7.958;2023-02-28T23:04:10;98908.38;;;19.19;23.97
78509;BME280;67802;50.846;7.958;2023-02-28T23:06:38;98911.03;;;19.19;23.91
78509;BME280;67802;50.846;7.958;2023-02-28T23:09:14;98911.03;;;19.19;23.93
78509;BME280;67802;50.846;7.958;2023-02-28T23:11:44;98911.97;;;19.18;23.77
78509;BME280;67802;50.846;7.958;2023-02-28T23:14:11;98915.53;;;19.17;24.00
78509;BME280;67802;50.846;7.958;2023-02-28T23:16:45;98916.47;;;19.16;23.79
78509;BME280;67802;50.846;7.958;2023-02-28T23:19:16;98907.81;;;19.13;23.85
78509;BME280;67802;50.846;7.958;2023-02-28T23:21:43;98908.75;;;19.12;23.80
78509;BME280;67802;50.846;7.958;2023-02-28T23:24:10;98901.81;;;19.11;23.78
78509;BME280;67802;50.846;7.958;2023-02-28T23:26:38;98910.63;;;19.10;23.72
78509;BME280;67802;50.846;7.958;2023-02-28T23:29:04;98917.78;;;19.08;23.52
